sensor_id;sensor_type;location;lat;lon;timestamp;P1;durP1;ratioP1;P2;durP2;ratioP2
19339;SDS011;9804;52.350;6.684;2022-12-29T00:01:35;3.60;;;2.58;;
19339;SDS011;9804;52.350;6.684;2022-12-29T00:04:01;3.00;;;2.70;;
19339;SDS011;9804;52.350;6.684;2022-12-29T00:06:27;3.63;;;2.80;;
19339;SDS011;9804;52.350;6.684;2022-12-29T00:08:53;3.17;;;2.42;;
19339;SDS011;9804;52.350;6.684;2022-12-29T00:11:20;4.28;;;2.60;;
19339;SDS011;9804;52.350;6.684;2022-12-29T00:13:48;3.85;;;2.60;;
19339;SDS011;9804;52.350;6.684;2022-12-29T00:16:33;4.05;;;2.60;;
19339;SDS011;9804;52.350;6.684;2022-12-29T00:18:59;3.65;;;2.75;;
19339;SDS011;9804;52.350;6.684;2022-12-29T00:21:25;3.20;;;2.70;;
19339;SDS011;9804;52.350;6.684;2022-12-29T00:24:12;2.92;;;2.40;;
19339;SDS011;9804;52.350;6.684;2022-12-29T00:29:50;3.92;;;2.63;;
19339;SDS011;9804;52.350;6.684;2022-12-29T00:32:34;2.33;;;2.13;;
19339;SDS011;9804;52.350;6.684;2022-12-29T00:37:49;2.55;;;2.22;;
19339;SDS011;9804;52.350;6.684;2022-12-29T00:40:34;5.15;;;2.75;;
19339;SDS011;9804;52.350;6.684;2022-12-29T00:43:17;2.63;;;2.20;;
19339;SDS011;9804;52.350;6.684;2022-12-29T00:46:01;2.78;;;2.47;;
19339;SDS011;9804;52.350;6.684;2022-12-29T00:48:26;2.60;;;2.20;;
19339;SDS011;9804;52.350;6.684;2022-12-29T00:51:10;4.50;;;2.65;;
19339;SDS011;9804;52.350;6.684;2022-12-29T00:53:36;3.28;;;2.50;;
19339;SDS011;9804;52.350;6.684;2022-12-29T00:56:01;2.92;;;2.38;;
19339;SDS011;9804;52.350;6.684;2022-12-29T00:58:30;2.55;;;2.15;;
19339;SDS011;9804;52.350;6.684;2022-12-29T01:01:05;2.45;;;2.13;;
19339;SDS011;9804;52.350;6.684;2022-12-29T01:03:32;3.42;;;2.10;;
19339;SDS011;9804;52.350;6.684;2022-12-29T01:06:05;2.60;;;2.13;;
19339;SDS011;9804;52.350;6.684;2022-12-29T01:08:32;2.50;;;2.17;;
19339;SDS011;9804;52.350;6.684;2022-12-29T01:11:02;5.60;;;2.35;;
19339;SDS011;9804;52.350;6.684;2022-12-29T01:13:30;1.85;;;1.75;;
19339;SDS011;9804;52.350;6.684;2022-12-29T01:15:55;3.45;;;2.10;;
19339;SDS011;9804;52.350;6.684;2022-12-29T01:18:22;4.30;;;2.10;;
19339;SDS011;9804;52.350;6.684;2022-12-29T01:20:48;3.58;;;1.83;;
19339;SDS011;9804;52.350;6.684;2022-12-29T01:23:14;1.90;;;1.73;;
19339;SDS011;9804;52.350;6.684;2022-12-29T01:25:39;1.73;;;1.63;;
19339;SDS011;9804;52.350;6.684;2022-12-29T01:28:04;3.15;;;1.73;;
19339;SDS011;9804;52.350;6.684;2022-12-29T01:30:32;3.45;;;2.03;;
19339;SDS011;9804;52.350;6.684;2022-12-29T01:32:57;1.92;;;1.75;;
19339;SDS011;9804;52.350;6.684;2022-12-29T01:35:23;2.88;;;2.05;;
19339;SDS011;9804;52.350;6.684;2022-12-29T01:37:49;2.13;;;1.88;;
19339;SDS011;9804;52.350;6.684;2022-12-29T01:40:14;3.80;;;2.10;;
19339;SDS011;9804;52.350;6.684;2022-12-29T01:42:40;4.63;;;1.80;;
19339;SDS011;9804;52.350;6.684;2022-12-29T01:45:09;1.70;;;1.58;;
19339;SDS011;9804;52.350;6.684;2022-12-29T01:47:38;2.78;;;1.80;;
19339;SDS011;9804;52.350;6.684;2022-12-29T01:52:56;3.80;;;1.70;;
19339;SDS011;9804;52.350;6.684;2022-12-29T01:55:50;2.72;;;1.65;;
19339;SDS011;9804;52.350;6.684;2022-12-29T01:58:19;1.52;;;1.20;;
19339;SDS011;9804;52.350;6.684;2022-12-29T02:00:48;2.20;;;1.25;;
19339;SDS011;9804;52.350;6.684;2022-12-29T02:03:13;2.00;;;1.25;;
19339;SDS011;9804;52.350;6.684;2022-12-29T02:05:46;1.75;;;1.08;;
19339;SDS011;9804;52.350;6.684;2022-12-29T02:08:17;1.80;;;0.80;;
19339;SDS011;9804;52.350;6.684;2022-12-29T02:10:45;1.77;;;1.00;;
19339;SDS011;9804;52.350;6.684;2022-12-29T02:13:14;2.40;;;1.13;;
19339;SDS011;9804;52.350;6.684;2022-12-29T02:15:45;2.75;;;0.90;;
19339;SDS011;9804;52.350;6.684;2022-12-29T02:18:28;2.47;;;1.00;;
19339;SDS011;9804;52.350;6.684;2022-12-29T02:30:02;2.08;;;1.00;;
19339;SDS011;9804;52.350;6.684;2022-12-29T02:38:05;1.92;;;1.00;;
19339;SDS011;9804;52.350;6.684;2022-12-29T02:43:38;2.22;;;1.55;;
19339;SDS011;9804;52.350;6.684;2022-12-29T02:46:15;3.67;;;1.55;;
19339;SDS011;9804;52.350;6.684;2022-12-29T02:48:58;2.72;;;1.80;;
19339;SDS011;9804;52.350;6.684;2022-12-29T02:52:04;2.00;;;1.80;;
19339;SDS011;9804;52.350;6.684;2022-12-29T02:54:35;2.42;;;1.80;;
19339;SDS011;9804;52.350;6.684;2022-12-29T03:00:07;4.00;;;1.92;;
19339;SDS011;9804;52.350;6.684;2022-12-29T03:02:51;1.70;;;1.60;;
19339;SDS011;9804;52.350;6.684;2022-12-29T03:10:58;2.03;;;1.67;;
19339;SDS011;9804;52.350;6.684;2022-12-29T03:16:44;3.75;;;1.40;;
19339;SDS011;9804;52.350;6.684;2022-12-29T03:19:21;4.30;;;1.55;;
19339;SDS011;9804;52.350;6.684;2022-12-29T03:22:27;3.05;;;1.20;;
19339;SDS011;9804;52.350;6.684;2022-12-29T03:24:59;3.35;;;1.10;;
19339;SDS011;9804;52.350;6.684;2022-12-29T03:27:30;5.13;;;0.85;;
19339;SDS011;9804;52.350;6.684;2022-12-29T03:30:00;3.60;;;0.50;;
19339;SDS011;9804;52.350;6.684;2022-12-29T03:32:41;2.95;;;0.50;;
19339;SDS011;9804;52.350;6.684;2022-12-29T03:35:11;1.30;;;0.60;;
19339;SDS011;9804;52.350;6.684;2022-12-29T03:37:40;2.97;;;0.50;;
19339;SDS011;9804;52.350;6.684;2022-12-29T03:40:10;0.82;;;0.35;;
19339;SDS011;9804;52.350;6.684;2022-12-29T03:42:36;1.65;;;0.60;;
19339;SDS011;9804;52.350;6.684;2022-12-29T03:45:04;1.58;;;0.60;;
19339;SDS011;9804;52.350;6.684;2022-12-29T03:47:31;2.78;;;0.90;;
19339;SDS011;9804;52.350;6.684;2022-12-29T03:49:56;1.67;;;0.85;;
19339;SDS011;9804;52.350;6.684;2022-12-29T03:52:22;2.05;;;0.60;;
19339;SDS011;9804;52.350;6.684;2022-12-29T03:54:47;2.35;;;0.93;;
19339;SDS011;9804;52.350;6.684;2022-12-29T03:57:13;3.45;;;1.20;;
19339;SDS011;9804;52.350;6.684;2022-12-29T03:59:38;3.92;;;1.17;;
19339;SDS011;9804;52.350;6.684;2022-12-29T04:02:03;5.97;;;1.83;;
19339;SDS011;9804;52.350;6.684;2022-12-29T04:04:29;2.25;;;1.30;;
19339;SDS011;9804;52.350;6.684;2022-12-29T04:06:54;3.53;;;1.27;;
19339;SDS011;9804;52.350;6.684;2022-12-29T04:09:19;2.72;;;1.20;;
19339;SDS011;9804;52.350;6.684;2022-12-29T04:11:45;2.10;;;1.13;;
19339;SDS011;9804;52.350;6.684;2022-12-29T04:14:10;1.65;;;1.10;;
19339;SDS011;9804;52.350;6.684;2022-12-29T04:16:35;2.78;;;1.20;;
19339;SDS011;9804;52.350;6.684;2022-12-29T04:19:03;3.13;;;1.17;;
19339;SDS011;9804;52.350;6.684;2022-12-29T04:21:29;1.85;;;1.13;;
19339;SDS011;9804;52.350;6.684;2022-12-29T04:23:55;2.38;;;1.00;;
19339;SDS011;9804;52.350;6.684;2022-12-29T04:26:20;5.18;;;1.20;;
19339;SDS011;9804;52.350;6.684;2022-12-29T04:28:45;3.67;;;0.80;;
19339;SDS011;9804;52.350;6.684;2022-12-29T04:31:11;4.65;;;1.33;;
19339;SDS011;9804;52.350;6.684;2022-12-29T04:33:36;5.75;;;1.40;;
19339;SDS011;9804;52.350;6.684;2022-12-29T04:36:01;2.10;;;1.25;;
19339;SDS011;9804;52.350;6.684;2022-12-29T04:38:27;3.63;;;0.90;;
19339;SDS011;9804;52.350;6.684;2022-12-29T04:40:52;6.88;;;1.00;;
19339;SDS011;9804;52.350;6.684;2022-12-29T04:43:18;2.85;;;1.00;;
19339;SDS011;9804;52.350;6.684;2022-12-29T04:45:44;3.67;;;0.75;;
19339;SDS011;9804;52.350;6.684;2022-12-29T04:48:11;2.85;;;0.90;;
19339;SDS011;9804;52.350;6.684;2022-12-29T04:50:36;2.03;;;0.88;;
19339;SDS011;9804;52.350;6.684;2022-12-29T04:53:02;4.97;;;1.20;;
19339;SDS011;9804;52.350;6.684;2022-12-29T04:55:27;1.45;;;0.95;;
19339;SDS011;9804;52.350;6.684;2022-12-29T04:57:52;2.72;;;0.80;;
19339;SDS011;9804;52.350;6.684;2022-12-29T05:00:18;6.15;;;1.42;;
19339;SDS011;9804;52.350;6.684;2022-12-29T05:02:44;2.60;;;0.80;;
19339;SDS011;9804;52.350;6.684;2022-12-29T05:05:10;5.20;;;0.90;;
19339;SDS011;9804;52.350;6.684;2022-12-29T05:07:35;2.63;;;0.88;;
19339;SDS011;9804;52.350;6.684;2022-12-29T05:10:01;3.38;;;0.80;;
19339;SDS011;9804;52.350;6.684;2022-12-29T05:12:29;3.33;;;1.02;;
19339;SDS011;9804;52.350;6.684;2022-12-29T05:14:56;3.65;;;0.70;;
19339;SDS011;9804;52.350;6.684;2022-12-29T05:17:21;3.83;;;0.77;;
19339;SDS011;9804;52.350;6.684;2022-12-29T05:19:46;5.35;;;0.75;;
19339;SDS011;9804;52.350;6.684;2022-12-29T05:22:12;2.15;;;0.93;;
19339;SDS011;9804;52.350;6.684;2022-12-29T05:24:37;3.97;;;0.75;;
19339;SDS011;9804;52.350;6.684;2022-12-29T05:27:02;1.67;;;0.68;;
19339;SDS011;9804;52.350;6.684;2022-12-29T05:29:28;2.47;;;0.80;;
19339;SDS011;9804;52.350;6.684;2022-12-29T05:31:53;3.83;;;0.77;;
19339;SDS011;9804;52.350;6.684;2022-12-29T05:34:19;3.72;;;0.65;;
19339;SDS011;9804;52.350;6.684;2022-12-29T05:36:44;3.08;;;0.70;;
19339;SDS011;9804;52.350;6.684;2022-12-29T05:39:09;3.20;;;0.73;;
19339;SDS011;9804;52.350;6.684;2022-12-29T05:41:35;4.63;;;0.73;;
19339;SDS011;9804;52.350;6.684;2022-12-29T05:44:00;3.00;;;0.80;;
19339;SDS011;9804;52.350;6.684;2022-12-29T05:46:25;2.53;;;0.73;;
19339;SDS011;9804;52.350;6.684;2022-12-29T05:48:51;2.22;;;0.85;;
19339;SDS011;9804;52.350;6.684;2022-12-29T05:51:16;3.95;;;0.63;;
19339;SDS011;9804;52.350;6.684;2022-12-29T05:53:42;7.18;;;1.00;;
19339;SDS011;9804;52.350;6.684;2022-12-29T05:56:07;6.32;;;1.02;;
19339;SDS011;9804;52.350;6.684;2022-12-29T05:58:32;5.50;;;0.90;;
19339;SDS011;9804;52.350;6.684;2022-12-29T06:00:58;4.53;;;0.70;;
19339;SDS011;9804;52.350;6.684;2022-12-29T06:03:23;7.80;;;1.27;;
19339;SDS011;9804;52.350;6.684;2022-12-29T06:05:48;7.88;;;1.17;;
19339;SDS011;9804;52.350;6.684;2022-12-29T06:08:14;6.07;;;1.00;;
19339;SDS011;9804;52.350;6.684;2022-12-29T06:10:39;8.05;;;0.93;;
19339;SDS011;9804;52.350;6.684;2022-12-29T06:13:05;8.00;;;1.13;;
19339;SDS011;9804;52.350;6.684;2022-12-29T06:15:31;9.90;;;1.70;;
19339;SDS011;9804;52.350;6.684;2022-12-29T06:17:57;9.63;;;1.40;;
19339;SDS011;9804;52.350;6.684;2022-12-29T06:20:23;8.10;;;1.20;;
19339;SDS011;9804;52.350;6.684;2022-12-29T06:22:48;5.90;;;0.90;;
19339;SDS011;9804;52.350;6.684;2022-12-29T06:25:14;7.80;;;1.05;;
19339;SDS011;9804;52.350;6.684;2022-12-29T06:27:40;6.78;;;1.77;;
19339;SDS011;9804;52.350;6.684;2022-12-29T06:30:05;7.97;;;1.13;;
19339;SDS011;9804;52.350;6.684;2022-12-29T06:32:31;7.80;;;1.02;;
19339;SDS011;9804;52.350;6.684;2022-12-29T06:34:56;7.00;;;1.15;;
19339;SDS011;9804;52.350;6.684;2022-12-29T06:37:22;8.50;;;1.10;;
19339;SDS011;9804;52.350;6.684;2022-12-29T06:39:47;6.03;;;1.02;;
19339;SDS011;9804;52.350;6.684;2022-12-29T06:42:12;6.57;;;0.90;;
19339;SDS011;9804;52.350;6.684;2022-12-29T06:44:38;8.77;;;1.13;;
19339;SDS011;9804;52.350;6.684;2022-12-29T06:47:03;2.17;;;1.00;;
19339;SDS011;9804;52.350;6.684;2022-12-29T06:49:29;5.82;;;0.90;;
19339;SDS011;9804;52.350;6.684;2022-12-29T06:51:54;6.50;;;0.85;;
19339;SDS011;9804;52.350;6.684;2022-12-29T06:54:19;4.45;;;0.85;;
19339;SDS011;9804;52.350;6.684;2022-12-29T06:56:45;3.75;;;0.80;;
19339;SDS011;9804;52.350;6.684;2022-12-29T06:59:10;4.25;;;0.95;;
19339;SDS011;9804;52.350;6.684;2022-12-29T07:01:35;2.90;;;0.90;;
19339;SDS011;9804;52.350;6.684;2022-12-29T07:04:01;4.00;;;1.00;;
19339;SDS011;9804;52.350;6.684;2022-12-29T07:06:27;4.85;;;0.88;;
19339;SDS011;9804;52.350;6.684;2022-12-29T07:08:53;3.70;;;1.10;;
19339;SDS011;9804;52.350;6.684;2022-12-29T07:11:20;5.40;;;1.27;;
19339;SDS011;9804;52.350;6.684;2022-12-29T07:13:46;5.82;;;1.23;;
19339;SDS011;9804;52.350;6.684;2022-12-29T07:16:11;6.60;;;0.93;;
19339;SDS011;9804;52.350;6.684;2022-12-29T07:18:37;6.82;;;1.10;;
19339;SDS011;9804;52.350;6.684;2022-12-29T07:21:03;5.63;;;0.90;;
19339;SDS011;9804;52.350;6.684;2022-12-29T07:23:28;6.38;;;0.90;;
19339;SDS011;9804;52.350;6.684;2022-12-29T07:26:04;5.35;;;1.00;;
19339;SDS011;9804;52.350;6.684;2022-12-29T07:28:31;8.90;;;1.17;;
19339;SDS011;9804;52.350;6.684;2022-12-29T07:30:57;6.22;;;1.10;;
19339;SDS011;9804;52.350;6.684;2022-12-29T07:33:23;10.70;;;1.45;;
19339;SDS011;9804;52.350;6.684;2022-12-29T07:35:49;6.40;;;1.35;;
19339;SDS011;9804;52.350;6.684;2022-12-29T07:38:15;9.63;;;1.75;;
19339;SDS011;9804;52.350;6.684;2022-12-29T07:40:41;6.13;;;0.90;;
19339;SDS011;9804;52.350;6.684;2022-12-29T07:43:07;6.28;;;1.73;;
19339;SDS011;9804;52.350;6.684;2022-12-29T07:45:32;7.43;;;1.65;;
19339;SDS011;9804;52.350;6.684;2022-12-29T07:47:57;7.70;;;1.30;;
19339;SDS011;9804;52.350;6.684;2022-12-29T07:50:23;8.50;;;1.25;;
19339;SDS011;9804;52.350;6.684;2022-12-29T07:52:48;5.97;;;1.30;;
19339;SDS011;9804;52.350;6.684;2022-12-29T07:55:14;4.70;;;0.80;;
19339;SDS011;9804;52.350;6.684;2022-12-29T07:57:40;8.85;;;1.40;;
19339;SDS011;9804;52.350;6.684;2022-12-29T08:00:06;10.82;;;1.30;;
19339;SDS011;9804;52.350;6.684;2022-12-29T08:02:32;6.70;;;1.20;;
19339;SDS011;9804;52.350;6.684;2022-12-29T08:04:58;10.35;;;1.35;;
19339;SDS011;9804;52.350;6.684;2022-12-29T08:07:23;8.20;;;0.95;;
19339;SDS011;9804;52.350;6.684;2022-12-29T08:09:48;10.50;;;1.30;;
19339;SDS011;9804;52.350;6.684;2022-12-29T08:12:14;6.05;;;1.00;;
19339;SDS011;9804;52.350;6.684;2022-12-29T08:14:39;6.60;;;1.00;;
19339;SDS011;9804;52.350;6.684;2022-12-29T08:17:05;4.60;;;0.98;;
19339;SDS011;9804;52.350;6.684;2022-12-29T08:19:30;6.85;;;1.33;;
19339;SDS011;9804;52.350;6.684;2022-12-29T08:21:55;6.63;;;2.08;;
19339;SDS011;9804;52.350;6.684;2022-12-29T08:24:21;9.57;;;1.40;;
19339;SDS011;9804;52.350;6.684;2022-12-29T08:26:46;11.38;;;1.42;;
19339;SDS011;9804;52.350;6.684;2022-12-29T08:29:11;15.05;;;1.40;;
19339;SDS011;9804;52.350;6.684;2022-12-29T08:31:37;8.82;;;1.90;;
19339;SDS011;9804;52.350;6.684;2022-12-29T08:34:02;11.67;;;1.57;;
19339;SDS011;9804;52.350;6.684;2022-12-29T08:36:28;5.20;;;1.33;;
19339;SDS011;9804;52.350;6.684;2022-12-29T08:38:55;6.55;;;1.20;;
19339;SDS011;9804;52.350;6.684;2022-12-29T08:41:21;8.68;;;1.73;;
19339;SDS011;9804;52.350;6.684;2022-12-29T08:43:46;8.88;;;1.60;;
19339;SDS011;9804;52.350;6.684;2022-12-29T08:46:14;7.60;;;1.80;;
19339;SDS011;9804;52.350;6.684;2022-12-29T08:48:40;4.85;;;1.00;;
19339;SDS011;9804;52.350;6.684;2022-12-29T08:51:05;8.50;;;1.48;;
19339;SDS011;9804;52.350;6.684;2022-12-29T08:53:30;15.30;;;1.87;;
19339;SDS011;9804;52.350;6.684;2022-12-29T08:55:57;6.27;;;1.37;;
19339;SDS011;9804;52.350;6.684;2022-12-29T08:58:24;8.83;;;1.30;;
19339;SDS011;9804;52.350;6.684;2022-12-29T09:00:51;9.55;;;1.58;;
19339;SDS011;9804;52.350;6.684;2022-12-29T09:03:20;8.05;;;1.40;;
19339;SDS011;9804;52.350;6.684;2022-12-29T09:05:47;7.70;;;1.63;;
19339;SDS011;9804;52.350;6.684;2022-12-29T09:08:14;4.80;;;1.30;;
19339;SDS011;9804;52.350;6.684;2022-12-29T09:10:39;9.65;;;2.08;;
19339;SDS011;9804;52.350;6.684;2022-12-29T09:13:04;11.60;;;1.42;;
19339;SDS011;9804;52.350;6.684;2022-12-29T09:15:30;11.90;;;1.45;;
19339;SDS011;9804;52.350;6.684;2022-12-29T09:17:55;10.13;;;1.40;;
19339;SDS011;9804;52.350;6.684;2022-12-29T09:20:21;12.57;;;1.60;;
19339;SDS011;9804;52.350;6.684;2022-12-29T09:22:46;7.63;;;1.17;;
19339;SDS011;9804;52.350;6.684;2022-12-29T09:25:12;12.77;;;1.50;;
19339;SDS011;9804;52.350;6.684;2022-12-29T09:27:38;8.10;;;2.08;;
19339;SDS011;9804;52.350;6.684;2022-12-29T09:30:04;8.10;;;1.45;;
19339;SDS011;9804;52.350;6.684;2022-12-29T09:32:32;12.30;;;1.65;;
19339;SDS011;9804;52.350;6.684;2022-12-29T09:34:58;11.18;;;1.42;;
19339;SDS011;9804;52.350;6.684;2022-12-29T09:37:23;9.40;;;2.28;;
19339;SDS011;9804;52.350;6.684;2022-12-29T09:39:49;6.88;;;1.00;;
19339;SDS011;9804;52.350;6.684;2022-12-29T09:42:18;7.73;;;1.57;;
19339;SDS011;9804;52.350;6.684;2022-12-29T09:47:33;9.23;;;1.77;;
19339;SDS011;9804;52.350;6.684;2022-12-29T09:50:16;8.00;;;1.00;;
19339;SDS011;9804;52.350;6.684;2022-12-29T09:53:29;13.15;;;1.45;;
19339;SDS011;9804;52.350;6.684;2022-12-29T09:55:53;12.68;;;1.75;;
19339;SDS011;9804;52.350;6.684;2022-12-29T10:01:05;9.40;;;1.40;;
19339;SDS011;9804;52.350;6.684;2022-12-29T10:03:55;8.43;;;1.60;;
19339;SDS011;9804;52.350;6.684;2022-12-29T10:06:22;8.07;;;1.63;;
19339;SDS011;9804;52.350;6.684;2022-12-29T10:08:57;10.20;;;1.83;;
19339;SDS011;9804;52.350;6.684;2022-12-29T10:11:54;7.13;;;1.42;;
19339;SDS011;9804;52.350;6.684;2022-12-29T10:17:07;9.10;;;1.50;;
19339;SDS011;9804;52.350;6.684;2022-12-29T10:25:00;15.65;;;2.30;;
19339;SDS011;9804;52.350;6.684;2022-12-29T10:27:29;11.15;;;1.38;;
19339;SDS011;9804;52.350;6.684;2022-12-29T10:29:57;10.10;;;2.30;;
19339;SDS011;9804;52.350;6.684;2022-12-29T10:32:29;11.40;;;2.45;;
19339;SDS011;9804;52.350;6.684;2022-12-29T10:35:09;11.98;;;2.40;;
19339;SDS011;9804;52.350;6.684;2022-12-29T10:40:24;10.30;;;1.48;;
19339;SDS011;9804;52.350;6.684;2022-12-29T10:42:55;9.43;;;1.30;;
19339;SDS011;9804;52.350;6.684;2022-12-29T10:45:23;7.35;;;1.80;;
19339;SDS011;9804;52.350;6.684;2022-12-29T10:48:00;10.43;;;1.55;;
19339;SDS011;9804;52.350;6.684;2022-12-29T10:50:43;4.82;;;1.13;;
19339;SDS011;9804;52.350;6.684;2022-12-29T10:53:09;7.78;;;1.42;;
19339;SDS011;9804;52.350;6.684;2022-12-29T10:55:45;9.88;;;1.48;;
19339;SDS011;9804;52.350;6.684;2022-12-29T10:58:12;5.97;;;1.20;;
19339;SDS011;9804;52.350;6.684;2022-12-29T11:00:39;8.82;;;1.20;;
19339;SDS011;9804;52.350;6.684;2022-12-29T11:06:13;8.38;;;1.58;;
19339;SDS011;9804;52.350;6.684;2022-12-29T11:08:54;5.45;;;1.38;;
19339;SDS011;9804;52.350;6.684;2022-12-29T11:11:24;9.60;;;1.60;;
19339;SDS011;9804;52.350;6.684;2022-12-29T11:16:42;9.63;;;1.60;;
19339;SDS011;9804;52.350;6.684;2022-12-29T11:19:22;8.35;;;1.27;;
19339;SDS011;9804;52.350;6.684;2022-12-29T11:21:50;10.25;;;1.48;;
19339;SDS011;9804;52.350;6.684;2022-12-29T11:26:52;4.13;;;0.98;;
19339;SDS011;9804;52.350;6.684;2022-12-29T11:29:29;8.32;;;1.00;;
19339;SDS011;9804;52.350;6.684;2022-12-29T11:32:10;7.22;;;1.17;;
19339;SDS011;9804;52.350;6.684;2022-12-29T11:34:37;7.78;;;1.38;;
19339;SDS011;9804;52.350;6.684;2022-12-29T11:37:11;8.15;;;1.45;;
19339;SDS011;9804;52.350;6.684;2022-12-29T11:39:56;5.93;;;1.33;;
19339;SDS011;9804;52.350;6.684;2022-12-29T11:43:11;3.90;;;1.40;;
19339;SDS011;9804;52.350;6.684;2022-12-29T11:45:16;6.70;;;1.10;;
19339;SDS011;9804;52.350;6.684;2022-12-29T11:47:45;7.57;;;1.27;;
19339;SDS011;9804;52.350;6.684;2022-12-29T11:50:26;5.30;;;1.35;;
19339;SDS011;9804;52.350;6.684;2022-12-29T11:52:58;6.40;;;1.23;;
19339;SDS011;9804;52.350;6.684;2022-12-29T11:55:29;3.67;;;1.23;;
19339;SDS011;9804;52.350;6.684;2022-12-29T11:57:57;5.32;;;1.20;;
19339;SDS011;9804;52.350;6.684;2022-12-29T12:00:26;4.95;;;1.55;;
19339;SDS011;9804;52.350;6.684;2022-12-29T12:03:00;9.80;;;1.90;;
19339;SDS011;9804;52.350;6.684;2022-12-29T12:05:31;7.93;;;1.73;;
19339;SDS011;9804;52.350;6.684;2022-12-29T12:08:09;7.38;;;1.77;;
19339;SDS011;9804;52.350;6.684;2022-12-29T12:10:53;9.05;;;2.28;;
19339;SDS011;9804;52.350;6.684;2022-12-29T12:13:34;11.52;;;2.38;;
19339;SDS011;9804;52.350;6.684;2022-12-29T12:16:06;8.52;;;3.42;;
19339;SDS011;9804;52.350;6.684;2022-12-29T12:18:38;7.50;;;2.95;;
19339;SDS011;9804;52.350;6.684;2022-12-29T12:21:12;11.88;;;2.70;;
19339;SDS011;9804;52.350;6.684;2022-12-29T12:23:55;10.50;;;1.90;;
19339;SDS011;9804;52.350;6.684;2022-12-29T12:26:42;10.38;;;2.40;;
19339;SDS011;9804;52.350;6.684;2022-12-29T12:29:14;11.50;;;2.75;;
19339;SDS011;9804;52.350;6.684;2022-12-29T12:31:47;13.23;;;2.47;;
19339;SDS011;9804;52.350;6.684;2022-12-29T12:34:39;10.70;;;2.17;;
19339;SDS011;9804;52.350;6.684;2022-12-29T12:46:03;13.70;;;2.40;;
19339;SDS011;9804;52.350;6.684;2022-12-29T12:51:23;11.13;;;2.30;;
19339;SDS011;9804;52.350;6.684;2022-12-29T13:00:00;11.38;;;2.30;;
19339;SDS011;9804;52.350;6.684;2022-12-29T13:02:39;8.25;;;2.10;;
19339;SDS011;9804;52.350;6.684;2022-12-29T13:11:02;7.70;;;2.05;;
19339;SDS011;9804;52.350;6.684;2022-12-29T13:13:58;17.15;;;5.07;;
19339;SDS011;9804;52.350;6.684;2022-12-29T13:16:50;9.65;;;2.20;;
19339;SDS011;9804;52.350;6.684;2022-12-29T13:19:28;10.73;;;2.03;;
19339;SDS011;9804;52.350;6.684;2022-12-29T13:22:17;13.15;;;2.60;;
19339;SDS011;9804;52.350;6.684;2022-12-29T13:27:48;10.35;;;2.50;;
19339;SDS011;9804;52.350;6.684;2022-12-29T13:30:34;10.48;;;1.80;;
19339;SDS011;9804;52.350;6.684;2022-12-29T13:35:50;8.60;;;1.73;;
19339;SDS011;9804;52.350;6.684;2022-12-29T13:41:00;7.82;;;1.95;;
19339;SDS011;9804;52.350;6.684;2022-12-29T13:43:31;9.35;;;2.10;;
19339;SDS011;9804;52.350;6.684;2022-12-29T13:46:01;9.40;;;3.08;;
19339;SDS011;9804;52.350;6.684;2022-12-29T13:48:36;12.98;;;3.00;;
19339;SDS011;9804;52.350;6.684;2022-12-29T13:51:04;13.02;;;3.20;;
19339;SDS011;9804;52.350;6.684;2022-12-29T13:56:40;8.13;;;2.75;;
19339;SDS011;9804;52.350;6.684;2022-12-29T13:59:16;16.63;;;4.13;;
19339;SDS011;9804;52.350;6.684;2022-12-29T14:06:02;11.85;;;3.53;;
19339;SDS011;9804;52.350;6.684;2022-12-29T14:07:48;15.63;;;4.53;;
19339;SDS011;9804;52.350;6.684;2022-12-29T14:10:25;14.68;;;4.10;;
19339;SDS011;9804;52.350;6.684;2022-12-29T14:13:12;13.70;;;3.55;;
19339;SDS011;9804;52.350;6.684;2022-12-29T14:15:39;20.67;;;3.83;;
19339;SDS011;9804;52.350;6.684;2022-12-29T14:18:14;11.70;;;3.38;;
19339;SDS011;9804;52.350;6.684;2022-12-29T14:20:46;11.68;;;3.20;;
19339;SDS011;9804;52.350;6.684;2022-12-29T14:23:34;12.82;;;3.80;;
19339;SDS011;9804;52.350;6.684;2022-12-29T14:30:58;8.32;;;3.00;;
19339;SDS011;9804;52.350;6.684;2022-12-29T14:33:26;12.57;;;3.35;;
19339;SDS011;9804;52.350;6.684;2022-12-29T14:35:53;11.38;;;3.70;;
19339;SDS011;9804;52.350;6.684;2022-12-29T14:38:24;11.65;;;3.17;;
19339;SDS011;9804;52.350;6.684;2022-12-29T14:40:52;9.70;;;3.00;;
19339;SDS011;9804;52.350;6.684;2022-12-29T14:43:19;16.85;;;3.70;;
19339;SDS011;9804;52.350;6.684;2022-12-29T14:45:52;11.02;;;3.30;;
19339;SDS011;9804;52.350;6.684;2022-12-29T14:51:19;14.77;;;3.20;;
19339;SDS011;9804;52.350;6.684;2022-12-29T14:53:52;18.90;;;3.35;;
19339;SDS011;9804;52.350;6.684;2022-12-29T14:56:18;16.60;;;3.63;;
19339;SDS011;9804;52.350;6.684;2022-12-29T14:58:53;12.15;;;3.58;;
19339;SDS011;9804;52.350;6.684;2022-12-29T15:03:57;13.90;;;3.97;;
19339;SDS011;9804;52.350;6.684;2022-12-29T15:06:29;9.45;;;3.50;;
19339;SDS011;9804;52.350;6.684;2022-12-29T15:09:00;15.98;;;3.10;;
19339;SDS011;9804;52.350;6.684;2022-12-29T15:11:40;14.65;;;3.83;;
19339;SDS011;9804;52.350;6.684;2022-12-29T15:14:29;12.68;;;3.40;;
19339;SDS011;9804;52.350;6.684;2022-12-29T15:16:59;13.02;;;3.20;;
19339;SDS011;9804;52.350;6.684;2022-12-29T15:19:26;7.22;;;2.90;;
19339;SDS011;9804;52.350;6.684;2022-12-29T15:21:52;12.23;;;3.50;;
19339;SDS011;9804;52.350;6.684;2022-12-29T15:24:19;13.32;;;2.58;;
19339;SDS011;9804;52.350;6.684;2022-12-29T15:26:46;15.60;;;3.10;;
19339;SDS011;9804;52.350;6.684;2022-12-29T15:29:30;16.55;;;3.78;;
19339;SDS011;9804;52.350;6.684;2022-12-29T15:31:58;8.95;;;2.90;;
19339;SDS011;9804;52.350;6.684;2022-12-29T15:34:28;11.98;;;2.60;;
19339;SDS011;9804;52.350;6.684;2022-12-29T15:36:55;7.57;;;1.80;;
19339;SDS011;9804;52.350;6.684;2022-12-29T15:39:21;8.35;;;1.83;;
19339;SDS011;9804;52.350;6.684;2022-12-29T15:41:56;6.85;;;1.58;;
19339;SDS011;9804;52.350;6.684;2022-12-29T15:44:36;4.75;;;1.42;;
19339;SDS011;9804;52.350;6.684;2022-12-29T15:47:05;3.92;;;1.33;;
19339;SDS011;9804;52.350;6.684;2022-12-29T15:49:36;4.78;;;1.70;;
19339;SDS011;9804;52.350;6.684;2022-12-29T15:52:05;22.10;;;12.50;;
19339;SDS011;9804;52.350;6.684;2022-12-29T15:54:32;7.55;;;3.33;;
19339;SDS011;9804;52.350;6.684;2022-12-29T15:56:58;5.53;;;1.80;;
19339;SDS011;9804;52.350;6.684;2022-12-29T15:59:28;3.88;;;1.92;;
19339;SDS011;9804;52.350;6.684;2022-12-29T16:01:55;7.40;;;1.80;;
19339;SDS011;9804;52.350;6.684;2022-12-29T16:04:22;8.48;;;2.63;;
19339;SDS011;9804;52.350;6.684;2022-12-29T16:06:56;6.55;;;2.35;;
19339;SDS011;9804;52.350;6.684;2022-12-29T16:12:01;7.93;;;2.88;;
19339;SDS011;9804;52.350;6.684;2022-12-29T16:14:32;8.50;;;3.03;;
19339;SDS011;9804;52.350;6.684;2022-12-29T16:17:20;7.43;;;2.65;;
19339;SDS011;9804;52.350;6.684;2022-12-29T16:19:59;12.10;;;4.30;;
19339;SDS011;9804;52.350;6.684;2022-12-29T16:22:34;8.57;;;3.20;;
19339;SDS011;9804;52.350;6.684;2022-12-29T16:25:06;13.73;;;6.82;;
19339;SDS011;9804;52.350;6.684;2022-12-29T16:27:41;15.98;;;5.97;;
19339;SDS011;9804;52.350;6.684;2022-12-29T16:30:19;12.53;;;5.30;;
19339;SDS011;9804;52.350;6.684;2022-12-29T16:32:50;12.27;;;4.35;;
19339;SDS011;9804;52.350;6.684;2022-12-29T16:38:22;11.00;;;3.13;;
19339;SDS011;9804;52.350;6.684;2022-12-29T16:40:51;9.52;;;2.80;;
19339;SDS011;9804;52.350;6.684;2022-12-29T16:43:23;8.82;;;3.13;;
19339;SDS011;9804;52.350;6.684;2022-12-29T16:48:25;10.77;;;3.10;;
19339;SDS011;9804;52.350;6.684;2022-12-29T16:50:51;11.98;;;3.38;;
19339;SDS011;9804;52.350;6.684;2022-12-29T16:53:26;12.18;;;2.85;;
19339;SDS011;9804;52.350;6.684;2022-12-29T16:55:54;14.60;;;3.03;;
19339;SDS011;9804;52.350;6.684;2022-12-29T16:58:22;9.23;;;2.55;;
19339;SDS011;9804;52.350;6.684;2022-12-29T17:00:52;7.85;;;2.30;;
19339;SDS011;9804;52.350;6.684;2022-12-29T17:03:22;10.02;;;3.05;;
19339;SDS011;9804;52.350;6.684;2022-12-29T17:05:51;8.63;;;2.95;;
19339;SDS011;9804;52.350;6.684;2022-12-29T17:08:18;8.63;;;2.67;;
19339;SDS011;9804;52.350;6.684;2022-12-29T17:10:49;10.48;;;2.45;;
19339;SDS011;9804;52.350;6.684;2022-12-29T17:13:37;7.43;;;2.50;;
19339;SDS011;9804;52.350;6.684;2022-12-29T17:16:04;10.85;;;2.45;;